Terminal Aerodrome Forecast
Issued by NWS

Home | Current Version | Previous Version | Text Only | Print | Product List | Glossary Off
Versions: 1 2 3 4 5 6 7 8 9 10 11 12 13

380
FTUS43 KUNR 102320
TAFGCC
TAF
KGCC 102320Z 1100/1124 32015KT P6SM SCT200
     FM110200 25009KT P6SM SCT150
     FM112200 28011KT P6SM BKN040=

USA.gov is the U.S. government's official web portal to all federal, state and local government web resources and services.